This is the latest recevied weather packets stored in our database for station/object K0WOI. If no packets are shown the sender has not sent any weather packets the latest 1 day(s).
| Time | Temp. | Humidity | Pressure | Rain* | Wind** | Luminosity | Snow |
|---|---|---|---|---|---|---|---|
| 1836274668 | 15° C | 99% | 1016.1 hPa | 0 mm | 0 m/s | 0 W/m² | - |
| 1836274521 | 15.56° C | 99% | 1016.1 hPa | 0 mm | 0 m/s | 0 W/m² | - |
| 1836274366 | 15° C | 99% | 1016.1 hPa | 0 mm | 0 m/s | 0 W/m² | - |
| 1836274220 | 15° C | 99% | 1016 hPa | 0 mm | 0 m/s | 0 W/m² | - |
| 1836274064 | 15° C | 99% | 1015.8 hPa | 0 mm | 0 m/s | 0 W/m² | - |
| 1778041466 | 6.11° C | 62% | 1012.9 hPa | 0 mm | 0 m/s | 0 W/m² | - |
| 1778041163 | 6.11° C | 61% | 1012.9 hPa | 0 mm | 0 m/s | 0 W/m² | - |
| 1778040861 | 6.67° C | 64% | 1013.1 hPa | 0 mm | 0 m/s | 0 W/m² | - |
| 1778040558 | 6.67° C | 63% | 1013.2 hPa | 0 mm | 0 m/s | 0 W/m² | - |
| 1778040256 | 7.22° C | 63% | 1013.1 hPa | 0 mm | 0 m/s | 0 W/m² | - |
| 1778039951 | 7.78° C | 54% | 1012.9 hPa | 0 mm | 0 m/s | 0 W/m² | - |
| 1778039649 | 7.78° C | 48% | 1013 hPa | 0 mm | 0 m/s | 0 W/m² | - |
| 1778039346 | 8.33° C | 45% | 1012.7 hPa | 0 mm | 0 m/s | 0 W/m² | - |
| 1778039043 | 8.33° C | 45% | 1012.6 hPa | 0 mm | 0 m/s | 0 W/m² | - |
| 1778038740 | 8.33° C | 45% | 1012.6 hPa | 0 mm | 0.45 m/s, 316° | 0 W/m² | - |
| 1778038437 | 8.33° C | 44% | 1012.8 hPa | 0 mm | 0.89 m/s, 321° | 0 W/m² | - |
| 1778038134 | 8.33° C | 45% | 1012.7 hPa | 0 mm | 0 m/s | 0 W/m² | - |
| 1778037831 | 8.33° C | 45% | 1012.7 hPa | 0 mm | 0 m/s | 0 W/m² | - |
| 1778037527 | 8.89° C | 44% | 1012.3 hPa | 0 mm | 0 m/s | 0 W/m² | - |
| 1778037225 | 8.89° C | 44% | 1012.9 hPa | 0 mm | 0.45 m/s, 321° | 0 W/m² | - |
| 1778036923 | 8.89° C | 43% | 1012.4 hPa | 0 mm | 0.45 m/s, 320° | 0 W/m² | - |
| 1778036620 | 9.44° C | 43% | 1012.7 hPa | 0 mm | 0.89 m/s, 319° | 0 W/m² | - |
| 1778036317 | 9.44° C | 42% | 1012.2 hPa | 0 mm | 0.89 m/s, 317° | 0 W/m² | - |
| 1778036013 | 10° C | 41% | 1012.4 hPa | 0 mm | 1.34 m/s, 317° | 0 W/m² | - |
| 1778035710 | 10° C | 41% | 1012.3 hPa | 0 mm | 0.45 m/s, 323° | 0 W/m² | - |
* Rain latest hour (hover to see other rain measurements)
** Current wind speed in m/s (hover to see current wind gust speed)